Time;durP1;ratioP1;P1;durP2;ratioP2;P2;SDS_P1;SDS_P2;PMS_P1;PMS_P2;Temp;Humidity;BMP_temperature;BMP_pressure;BME280_temperature;BME280_humidity;BME280_pressure;Samples;Min_cycle;Max_cycle;Signal;HPM_P1;HPM_P2
2021/03/08 00:01:53;;;;;;;14.13;10.73;;;11.50;52.70;;;;;;4265409;27;20058;-70
2021/03/08 00:03:55;;;;;;;14.90;10.00;;;11.60;47.10;;;;;;4265370;27;20051;-68
2021/03/08 00:05:56;;;;;;;9.02;6.28;;;12.20;48.10;;;;;;4265739;27;20452;-68
2021/03/08 00:07:58;;;;;;;10.63;8.45;;;11.60;50.50;;;;;;4265549;27;20115;-68
2021/03/08 00:10:00;;;;;;;13.27;10.73;;;11.80;49.60;;;;;;4265727;27;20043;-68
2021/03/08 00:12:03;;;;;;;14.43;10.98;;;11.60;48.70;;;;;;4265433;27;20095;-68
2021/03/08 00:14:04;;;;;;;19.85;13.90;;;10.50;52.00;;;;;;4265405;27;20043;-68
2021/03/08 00:16:06;;;;;;;19.60;15.55;;;9.80;51.40;;;;;;4265485;27;20055;-68
2021/03/08 00:18:08;;;;;;;24.77;19.90;;;9.00;53.70;;;;;;4265493;27;20046;-69
2021/03/08 00:20:13;;;;;;;19.85;16.65;;;8.60;52.50;;;;;;4265512;27;20085;-69
2021/03/08 00:22:14;;;;;;;27.25;19.77;;;8.30;55.90;;;;;;4266125;27;20550;-69
2021/03/08 00:24:16;;;;;;;27.15;20.77;;;8.40;57.70;;;;;;4266336;27;20394;-68
2021/03/08 00:26:18;;;;;;;20.85;16.08;;;7.40;57.00;;;;;;4265437;27;20054;-72
2021/03/08 00:28:20;;;;;;;21.55;17.13;;;7.10;59.60;;;;;;4265228;27;20068;-70
2021/03/08 00:30:22;;;;;;;27.13;21.27;;;6.90;62.30;;;;;;4265673;27;20060;-68
2021/03/08 00:32:24;;;;;;;22.70;17.92;;;6.60;61.90;;;;;;4265298;27;20046;-70
2021/03/08 00:34:26;;;;;;;26.55;21.20;;;6.50;64.30;;;;;;4265368;27;20464;-70
2021/03/08 00:36:28;;;;;;;24.73;20.17;;;6.50;64.20;;;;;;4266142;27;20038;-68
2021/03/08 00:38:30;;;;;;;17.00;14.20;;;6.50;63.10;;;;;;4265435;27;20057;-70
2021/03/08 00:40:31;;;;;;;28.42;20.13;;;6.70;66.60;;;;;;4265672;27;20083;-68
2021/03/08 00:42:34;;;;;;;31.05;23.02;;;6.40;65.50;;;;;;4265456;27;20564;-68
2021/03/08 00:44:36;;;;;;;28.48;20.85;;;5.60;66.40;;;;;;4266005;27;20043;-67
2021/03/08 00:46:38;;;;;;;20.88;16.02;;;6.30;67.50;;;;;;4266234;27;20065;-69
2021/03/08 00:48:40;;;;;;;30.58;23.60;;;7.30;66.20;;;;;;4265620;27;20076;-69
2021/03/08 00:50:41;;;;;;;35.83;23.58;;;6.30;64.00;;;;;;4265729;27;20055;-71
2021/03/08 00:52:43;;;;;;;35.03;20.63;;;5.90;65.60;;;;;;4248716;27;20058;-69
2021/03/08 00:54:45;;;;;;;28.80;20.55;;;6.30;66.60;;;;;;4267430;27;20046;-69
2021/03/08 00:56:47;;;;;;;28.98;20.67;;;6.40;69.00;;;;;;4248398;27;20051;-69
2021/03/08 00:59:04;;;;;;;22.02;16.70;;;6.30;67.10;;;;;;4267669;27;20091;-69
2021/03/08 01:01:07;;;;;;;16.35;11.75;;;7.70;64.30;;;;;;4267535;27;20256;-72
2021/03/08 01:03:09;;;;;;;22.35;16.23;;;7.80;67.60;;;;;;4266525;27;20054;-69
2021/03/08 01:05:11;;;;;;;27.17;16.75;;;7.30;66.00;;;;;;4265753;27;20039;-71
2021/03/08 01:07:13;;;;;;;14.93;10.82;;;7.50;60.40;;;;;;4266552;27;20422;-71
2021/03/08 01:09:15;;;;;;;18.77;12.90;;;8.60;60.80;;;;;;4266302;27;20047;-69
2021/03/08 01:11:16;;;;;;;17.83;13.35;;;8.50;59.10;;;;;;4266722;27;20086;-68
2021/03/08 01:13:18;;;;;;;26.65;20.73;;;7.90;63.90;;;;;;4266860;27;20047;-68
2021/03/08 01:15:20;;;;;;;31.15;23.92;;;7.30;60.30;;;;;;4267285;27;20052;-70
2021/03/08 01:17:26;;;;;;;22.85;18.08;;;6.70;60.90;;;;;;4267291;27;20505;-69
2021/03/08 01:19:28;;;;;;;29.48;23.60;;;6.90;64.50;;;;;;4267516;27;20051;-70
2021/03/08 01:21:30;;;;;;;27.40;22.40;;;8.30;60.30;;;;;;4267375;27;20398;-69
2021/03/08 01:23:32;;;;;;;22.42;17.58;;;7.50;57.90;;;;;;4249794;27;20098;-69
2021/03/08 01:25:35;;;;;;;29.80;21.23;;;8.20;60.30;;;;;;4268283;27;20121;-70
2021/03/08 01:27:37;;;;;;;27.55;22.17;;;7.80;58.50;;;;;;4267747;27;20050;-69
2021/03/08 01:29:39;;;;;;;21.15;15.98;;;7.90;56.90;;;;;;4267734;27;20115;-68
2021/03/08 01:31:40;;;;;;;13.98;11.63;;;8.40;57.30;;;;;;4267968;27;20451;-68
2021/03/08 01:33:43;;;;;;;13.00;9.35;;;8.60;58.70;;;;;;4267554;27;20455;-71
2021/03/08 01:35:44;;;;;;;14.25;9.73;;;9.00;58.30;;;;;;4267739;27;20050;-69
2021/03/08 01:37:46;;;;;;;26.42;19.48;;;10.50;56.20;;;;;;4267376;27;20042;-68
2021/03/08 01:39:48;;;;;;;25.58;19.80;;;10.10;50.10;;;;;;4267764;27;20047;-70
2021/03/08 01:41:49;;;;;;;16.35;12.23;;;9.90;53.60;;;;;;4266893;27;20051;-73
2021/03/08 01:43:51;;;;;;;24.52;17.17;;;9.80;55.90;;;;;;4266550;27;20039;-69
2021/03/08 01:45:53;;;;;;;30.98;22.63;;;9.50;52.20;;;;;;4267013;27;20069;-71
2021/03/08 01:47:55;;;;;;;27.45;19.70;;;8.70;53.20;;;;;;4266768;27;20551;-70
2021/03/08 01:49:58;;;;;;;29.13;22.40;;;8.00;59.50;;;;;;4266927;27;20049;-70
2021/03/08 01:51:59;;;;;;;13.20;8.65;;;7.90;57.50;;;;;;4266713;27;20523;-69
2021/03/08 01:54:01;;;;;;;16.50;11.45;;;9.90;58.00;;;;;;4267050;27;20103;-69
2021/03/08 01:56:03;;;;;;;27.02;17.95;;;9.90;59.00;;;;;;4266792;27;20068;-67
2021/03/08 01:58:06;;;;;;;34.70;23.30;;;9.90;50.40;;;;;;4266504;27;20038;-70
2021/03/08 02:00:09;;;;;;;37.22;27.65;;;9.90;50.90;;;;;;4266556;27;20046;-69
2021/03/08 02:02:11;;;;;;;19.40;13.40;;;8.50;51.90;;;;;;4266326;27;20447;-68
2021/03/08 02:04:12;;;;;;;16.80;12.55;;;9.20;58.50;;;;;;4265129;27;20134;-69
2021/03/08 02:06:15;;;;;;;22.33;15.20;;;9.90;58.90;;;;;;4265695;27;20064;-68
2021/03/08 02:08:19;;;;;;;16.75;11.70;;;8.80;55.00;;;;;;4265988;27;20087;-70
2021/03/08 02:10:20;;;;;;;30.27;20.60;;;8.50;58.80;;;;;;4265664;27;20087;-70
2021/03/08 02:12:32;;;;;;;35.45;26.23;;;8.10;61.50;;;;;;4265188;27;20043;-67
2021/03/08 02:14:49;;;;;;;21.83;17.42;;;8.20;57.70;;;;;;4265492;27;20046;-71
2021/03/08 02:16:56;;;;;;;28.40;19.13;;;8.40;56.70;;;;;;4266545;27;20050;-70
2021/03/08 02:19:01;;;;;;;26.98;19.00;;;9.50;53.80;;;;;;4268524;27;20050;-72
2021/03/08 02:21:31;;;;;;;32.78;25.13;;;8.90;57.80;;;;;;4268069;27;20053;-67
2021/03/08 02:24:05;;;;;;;28.63;21.42;;;8.50;53.80;;;;;;4268213;27;20046;-71
2021/03/08 02:26:32;;;;;;;29.85;24.20;;;8.00;54.10;;;;;;4268280;27;20054;-70
2021/03/08 02:28:55;;;;;;;34.72;24.92;;;7.80;61.60;;;;;;4268510;27;20053;-72
2021/03/08 02:31:00;;;;;;;14.73;9.77;;;7.40;63.50;;;;;;4267911;27;20118;-69
2021/03/08 02:33:07;;;;;;;35.38;23.42;;;7.60;66.20;;;;;;4267751;27;20475;-71
2021/03/08 02:35:13;;;;;;;13.82;10.30;;;7.30;59.90;;;;;;4267974;27;20050;-69
2021/03/08 02:37:19;;;;;;;27.65;20.55;;;9.10;63.70;;;;;;4267384;27;20050;-69
2021/03/08 02:39:26;;;;;;;34.78;26.20;;;9.30;55.70;;;;;;4267732;27;20046;-72
2021/03/08 02:41:29;;;;;;;28.80;19.90;;;9.00;52.40;;;;;;4267113;27;20043;-72
2021/03/08 02:43:34;;;;;;;22.17;15.65;;;8.40;56.60;;;;;;4248781;27;20576;-69
2021/03/08 02:45:36;;;;;;;18.13;13.38;;;10.30;55.50;;;;;;4248679;27;20481;-68
2021/03/08 02:47:44;;;;;;;26.23;20.92;;;11.70;50.80;;;;;;4266884;27;20046;-69
2021/03/08 02:49:49;;;;;;;13.65;9.70;;;11.00;49.00;;;;;;4266603;27;20082;-69
2021/03/08 02:51:52;;;;;;;;;;;11.60;51.30;;;;;;4268123;27;20491;-68
2021/03/08 02:53:58;;;;;;;16.05;11.75;;;10.20;50.30;;;;;;4269096;27;19926;-68
2021/03/08 02:56:04;;;;;;;18.38;11.15;;;11.70;51.50;;;;;;4249382;27;20050;-72
2021/03/08 02:58:09;;;;;;;14.60;11.05;;;11.60;50.30;;;;;;4266981;27;20054;-68
2021/03/08 03:00:12;;;;;;;15.03;11.50;;;11.80;49.40;;;;;;4266739;27;20402;-70
2021/03/08 03:02:15;;;;;;;15.85;12.13;;;12.40;48.70;;;;;;4266510;27;20498;-71
2021/03/08 03:04:22;;;;;;;16.52;11.60;;;12.50;47.40;;;;;;4266973;27;20081;-68
2021/03/08 03:06:25;;;;;;;14.95;10.00;;;13.20;46.50;;;;;;4266631;27;20084;-68
2021/03/08 03:08:28;;;;;;;14.18;9.32;;;13.40;45.60;;;;;;4265929;27;20050;-69
2021/03/08 03:10:32;;;;;;;9.85;7.85;;;14.20;44.60;;;;;;4266445;27;20046;-68
2021/03/08 03:12:36;;;;;;;15.15;10.25;;;14.40;43.90;;;;;;4266063;27;20577;-68
2021/03/08 03:14:39;;;;;;;11.52;9.10;;;14.00;43.40;;;;;;4265988;27;20061;-69
2021/03/08 03:16:43;;;;;;;14.90;10.55;;;13.70;44.70;;;;;;4266397;27;20181;-67
2021/03/08 03:18:49;;;;;;;19.17;15.63;;;13.20;44.90;;;;;;4265966;27;20046;-67
2021/03/08 03:20:53;;;;;;;19.52;16.13;;;13.40;42.20;;;;;;4266150;27;20054;-68
2021/03/08 03:22:58;;;;;;;13.95;10.38;;;13.70;42.30;;;;;;4248237;27;20138;-69
2021/03/08 03:25:01;;;;;;;17.38;12.65;;;13.20;43.00;;;;;;4267128;27;20091;-68
2021/03/08 03:27:05;;;;;;;16.63;11.95;;;12.30;45.40;;;;;;4268345;27;20050;-68
2021/03/08 03:29:09;;;;;;;13.02;9.23;;;11.40;46.90;;;;;;4265255;27;20042;-68
2021/03/08 03:31:11;;;;;;;30.83;25.13;;;12.30;49.50;;;;;;4266725;27;20051;-68
2021/03/08 03:33:14;;;;;;;21.48;17.73;;;10.80;44.30;;;;;;4267344;27;20050;-70
2021/03/08 03:35:17;;;;;;;30.25;24.33;;;11.50;48.10;;;;;;4249978;27;20047;-68
2021/03/08 03:37:23;;;;;;;31.23;23.70;;;10.90;44.60;;;;;;4267877;27;20054;-68
2021/03/08 03:39:25;;;;;;;11.55;8.48;;;10.60;48.70;;;;;;4266915;27;20049;-70
2021/03/08 03:41:27;;;;;;;17.55;14.05;;;11.00;53.30;;;;;;4266563;27;20107;-70
2021/03/08 03:43:30;;;;;;;18.52;13.23;;;12.00;47.70;;;;;;4266865;27;20073;-69
2021/03/08 03:45:32;;;;;;;15.75;11.35;;;11.30;49.10;;;;;;4249483;27;20049;-68
2021/03/08 03:47:34;;;;;;;38.88;29.42;;;12.10;48.00;;;;;;4267513;27;20119;-68
2021/03/08 03:49:36;;;;;;;26.23;20.92;;;9.70;45.70;;;;;;4267680;27;20137;-69
2021/03/08 03:51:37;;;;;;;22.45;16.25;;;9.20;51.60;;;;;;4267820;27;20103;-73
2021/03/08 03:53:40;;;;;;;20.65;12.50;;;11.10;48.80;;;;;;4267905;27;20059;-69
2021/03/08 03:55:42;;;;;;;15.13;12.35;;;11.50;51.30;;;;;;4267638;27;20103;-68
2021/03/08 03:57:52;;;;;;;16.83;12.45;;;12.50;48.20;;;;;;4267579;27;20111;-67
2021/03/08 03:59:55;;;;;;;33.35;26.25;;;13.10;46.90;;;;;;4268068;27;20085;-69
2021/03/08 04:01:59;;;;;;;27.58;18.67;;;11.60;44.30;;;;;;4266427;27;20054;-69
2021/03/08 04:04:08;;;;;;;24.23;18.02;;;11.10;45.70;;;;;;4266139;27;20402;-74
2021/03/08 04:06:10;;;;;;;36.03;24.50;;;10.10;48.70;;;;;;4265542;27;20047;-70
2021/03/08 04:08:18;;;;;;;12.90;9.48;;;9.60;48.40;;;;;;4266105;27;20216;-68
2021/03/08 04:10:22;;;;;;;25.08;18.55;;;10.10;56.00;;;;;;4247982;27;20068;-69
2021/03/08 04:12:27;;;;;;;25.00;19.77;;;9.20;55.00;;;;;;4247530;27;20055;-68
2021/03/08 04:14:32;;;;;;;31.98;22.83;;;9.70;51.10;;;;;;4265646;27;20454;-67
2021/03/08 04:16:39;;;;;;;39.58;28.13;;;8.90;50.10;;;;;;4265663;27;20579;-70
2021/03/08 04:18:42;;;;;;;38.00;28.85;;;7.70;53.70;;;;;;4265687;27;20377;-67
2021/03/08 04:20:45;;;;;;;27.23;18.80;;;8.00;53.50;;;;;;4267460;27;20078;-70
2021/03/08 04:22:50;;;;;;;18.75;14.02;;;7.80;57.50;;;;;;4269817;27;20846;-70
2021/03/08 04:24:53;;;;;;;42.10;31.27;;;7.90;63.60;;;;;;4270847;27;20483;-70
2021/03/08 04:26:56;;;;;;;21.67;15.30;;;7.80;54.10;;;;;;4251369;27;20046;-70
2021/03/08 04:29:01;;;;;;;15.90;12.80;;;9.00;58.30;;;;;;4269386;27;20043;-70
2021/03/08 04:31:04;;;;;;;31.77;23.50;;;8.80;60.80;;;;;;4269855;27;20053;-70
2021/03/08 04:33:06;;;;;;;25.92;20.38;;;8.20;56.90;;;;;;4270033;27;20070;-70
2021/03/08 04:35:09;;;;;;;29.83;20.35;;;9.00;57.80;;;;;;4250789;27;20047;-70
2021/03/08 04:37:13;;;;;;;15.52;12.15;;;8.20;57.20;;;;;;4267771;27;20132;-70
2021/03/08 04:39:14;;;;;;;28.10;19.48;;;11.00;53.70;;;;;;4266868;27;20053;-68
2021/03/08 04:41:17;;;;;;;13.52;10.77;;;10.90;48.20;;;;;;4267082;27;20087;-67
2021/03/08 04:43:22;;;;;;;19.98;15.70;;;11.60;52.10;;;;;;4267015;27;20072;-70
2021/03/08 04:45:23;;;;;;;;;;;12.10;47.20;;;;;;4267506;27;20432;-69
2021/03/08 04:47:26;;;;;;;15.10;9.70;;;12.90;48.20;;;;;;4248160;27;20473;-68
2021/03/08 04:49:28;;;;;;;13.55;10.68;;;11.90;48.30;;;;;;4266264;27;20085;-70
2021/03/08 04:51:30;;;;;;;21.98;16.77;;;12.00;48.50;;;;;;4265965;27;20434;-70
2021/03/08 04:53:33;;;;;;;17.77;11.55;;;10.40;51.00;;;;;;4265675;27;20047;-73
2021/03/08 04:55:36;;;;;;;17.17;12.52;;;11.70;50.10;;;;;;4266177;27;20043;-70
2021/03/08 04:57:39;;;;;;;12.18;9.30;;;11.80;50.00;;;;;;4267122;27;20047;-69
2021/03/08 04:59:42;;;;;;;11.73;10.05;;;13.00;47.50;;;;;;4267920;27;20057;-69
2021/03/08 05:01:45;;;;;;;12.43;10.25;;;13.30;45.90;;;;;;4268136;27;20094;-70
2021/03/08 05:03:48;;;;;;;11.70;8.05;;;13.10;45.60;;;;;;4249655;27;20545;-69
2021/03/08 05:05:52;;;;;;;27.00;20.58;;;14.00;44.80;;;;;;4267813;27;20047;-70
2021/03/08 05:07:58;;;;;;;20.23;15.32;;;11.80;41.60;;;;;;4268354;27;20054;-71
2021/03/08 05:10:01;;;;;;;37.05;25.65;;;12.80;45.30;;;;;;4268360;27;20115;-69
2021/03/08 05:12:06;;;;;;;13.40;9.32;;;11.30;43.10;;;;;;4267956;27;20451;-69
2021/03/08 05:14:11;;;;;;;24.25;19.05;;;12.90;47.30;;;;;;4267943;27;20103;-73
2021/03/08 05:16:14;;;;;;;18.27;14.20;;;12.30;45.90;;;;;;4267904;27;20129;-71
2021/03/08 05:18:18;;;;;;;27.95;19.38;;;12.10;45.90;;;;;;4267710;27;20376;-72
2021/03/08 05:20:21;;;;;;;30.95;22.42;;;11.00;46.90;;;;;;4268281;27;20043;-69
2021/03/08 05:22:24;;;;;;;14.98;11.60;;;9.40;48.90;;;;;;4268782;27;20099;-70
2021/03/08 05:24:26;;;;;;;31.25;24.45;;;10.60;50.30;;;;;;4268357;27;20047;-69
2021/03/08 05:26:29;;;;;;;14.45;10.55;;;10.90;46.30;;;;;;4267978;27;20043;-71
2021/03/08 05:28:31;;;;;;;31.55;23.80;;;11.90;50.20;;;;;;4267984;27;20117;-69
2021/03/08 05:30:33;;;;;;;26.17;17.58;;;11.30;44.50;;;;;;4267133;27;20053;-70
2021/03/08 05:32:41;;;;;;;;;;;10.60;45.90;;;;;;4268049;27;20050;-70
2021/03/08 05:34:47;;;;;;;12.97;9.40;;;10.10;52.00;;;;;;4268125;27;19940;-69
2021/03/08 05:36:50;;;;;;;28.95;18.67;;;11.90;50.60;;;;;;4267720;27;20490;-70
2021/03/08 05:38:53;;;;;;;16.67;9.88;;;12.30;45.90;;;;;;4268016;27;20047;-73
2021/03/08 05:41:05;;;;;;;21.45;15.75;;;11.50;50.70;;;;;;4267950;27;20068;-71
2021/03/08 05:43:10;;;;;;;17.00;12.30;;;11.90;46.60;;;;;;4267654;27;20501;-70
2021/03/08 05:45:19;;;;;;;19.58;14.65;;;11.80;48.80;;;;;;4267814;27;20043;-70
2021/03/08 05:48:08;;;;;;;20.90;15.00;;;11.90;46.10;;;;;;4267404;27;20063;-72
2021/03/08 05:50:36;;;;;;;23.48;16.88;;;11.20;49.20;;;;;;4197319;28;20459;-72
2021/03/08 05:53:07;;;;;;;15.48;12.00;;;11.00;48.90;;;;;;4261245;27;20094;-69
2021/03/08 05:55:39;;;;;;;35.50;26.17;;;11.60;50.20;;;;;;4271026;27;20448;-71
2021/03/08 05:57:49;;;;;;;29.63;22.05;;;10.90;47.50;;;;;;4271381;27;20050;-70
2021/03/08 06:00:16;;;;;;;17.75;10.00;;;10.50;44.50;;;;;;4271712;27;20110;-70
2021/03/08 06:02:52;;;;;;;23.58;17.75;;;12.20;48.20;;;;;;4270552;27;20103;-73
2021/03/08 06:05:22;;;;;;;35.15;24.27;;;11.10;43.30;;;;;;4271483;27;20043;-71
2021/03/08 06:08:03;;;;;;;17.65;13.18;;;10.30;51.00;;;;;;4271136;27;20078;-70
2021/03/08 06:10:06;;;;;;;19.48;13.75;;;10.40;46.60;;;;;;4271281;27;20042;-70
2021/03/08 06:12:11;;;;;;;18.25;13.80;;;11.00;50.20;;;;;;4271140;27;20099;-69
2021/03/08 06:14:16;;;;;;;25.83;18.02;;;11.10;49.10;;;;;;4270942;27;20065;-70
2021/03/08 06:16:24;;;;;;;34.38;24.80;;;10.50;48.20;;;;;;4270443;27;20058;-69
2021/03/08 06:18:33;;;;;;;22.45;15.90;;;9.00;48.50;;;;;;4268526;27;20526;-69
2021/03/08 06:20:36;;;;;;;36.70;26.50;;;10.20;49.00;;;;;;4270127;27;20591;-69
2021/03/08 06:22:39;;;;;;;17.13;12.15;;;8.50;48.60;;;;;;4251216;27;20429;-69
2021/03/08 06:24:43;;;;;;;45.40;26.73;;;8.80;55.10;;;;;;4268938;27;20070;-69
2021/03/08 06:26:46;;;;;;;33.47;24.90;;;7.80;53.10;;;;;;4266525;27;20061;-69
2021/03/08 06:28:50;;;;;;;20.83;14.13;;;7.80;54.00;;;;;;4271238;27;20079;-69
2021/03/08 06:30:54;;;;;;;33.00;19.08;;;8.90;58.80;;;;;;4270499;27;20046;-73
2021/03/08 06:32:57;;;;;;;39.67;25.15;;;8.10;54.50;;;;;;4270144;27;20039;-70
2021/03/08 06:34:59;;;;;;;16.92;12.27;;;8.00;54.10;;;;;;4270548;27;20043;-72
2021/03/08 06:37:04;;;;;;;13.40;9.10;;;9.50;58.10;;;;;;4270340;27;20592;-69
2021/03/08 06:39:09;;;;;;;13.73;8.65;;;10.70;56.30;;;;;;4270222;27;20042;-70
2021/03/08 06:41:11;;;;;;;31.33;19.52;;;11.80;51.80;;;;;;4269800;27;20103;-69
2021/03/08 06:43:13;;;;;;;15.60;10.73;;;10.70;47.60;;;;;;4270804;27;20103;-73
2021/03/08 06:45:15;;;;;;;19.05;11.55;;;11.00;50.30;;;;;;4269967;27;20043;-68
2021/03/08 06:47:18;;;;;;;12.45;8.65;;;10.80;50.40;;;;;;4269443;27;20047;-68
2021/03/08 06:49:20;;;;;;;23.60;13.68;;;12.40;49.70;;;;;;4251382;27;20064;-70
2021/03/08 06:51:22;;;;;;;14.93;9.63;;;12.80;46.10;;;;;;4269483;27;20042;-68
2021/03/08 06:53:30;;;;;;;28.67;16.45;;;12.70;48.00;;;;;;4269188;27;20051;-68
2021/03/08 06:55:33;;;;;;;15.18;10.80;;;11.60;44.50;;;;;;4269724;27;20054;-70
2021/03/08 06:57:36;;;;;;;32.97;23.13;;;12.30;47.20;;;;;;4269511;27;20097;-70
2021/03/08 06:59:51;;;;;;;13.95;10.60;;;11.10;43.00;;;;;;4269856;27;20068;-67
2021/03/08 07:01:53;;;;;;;;;;;12.30;47.40;;;;;;4271408;27;20099;-68
2021/03/08 07:03:57;;;;;;;23.27;11.60;;;13.10;44.50;;;;;;4269680;27;19922;-71
2021/03/08 07:06:16;;;;;;;23.23;11.63;;;13.80;44.10;;;;;;4270183;27;20054;-69
2021/03/08 07:08:22;;;;;;;23.38;15.05;;;13.80;44.10;;;;;;4268640;27;20042;-71
2021/03/08 07:10:33;;;;;;;32.42;17.15;;;13.70;41.80;;;;;;4267955;27;20043;-70
2021/03/08 07:12:47;;;;;;;25.17;14.00;;;12.80;44.10;;;;;;4267227;27;20053;-69
2021/03/08 07:15:01;;;;;;;47.33;24.58;;;13.70;43.80;;;;;;4266820;27;20522;-69
2021/03/08 07:17:18;;;;;;;20.10;13.38;;;13.30;39.00;;;;;;4266615;27;20099;-70
2021/03/08 07:19:20;;;;;;;38.83;24.77;;;13.00;42.30;;;;;;4266003;27;20042;-69
2021/03/08 07:21:22;;;;;;;28.42;17.35;;;11.50;42.00;;;;;;4266480;27;20047;-69
2021/03/08 07:23:26;;;;;;;17.42;9.43;;;10.90;47.90;;;;;;4266624;27;20626;-68
2021/03/08 07:25:30;;;;;;;16.73;10.75;;;12.30;48.20;;;;;;4267003;27;20046;-72
2021/03/08 07:27:44;;;;;;;13.75;8.48;;;13.20;45.70;;;;;;4266636;27;20042;-68
2021/03/08 07:30:05;;;;;;;18.85;10.05;;;13.80;44.00;;;;;;4266646;27;20096;-68
2021/03/08 07:32:11;;;;;;;22.52;10.93;;;14.00;42.70;;;;;;4265402;27;20047;-69
2021/03/08 07:34:14;;;;;;;26.77;17.20;;;15.90;40.60;;;;;;4265412;27;20043;-68
2021/03/08 07:36:15;;;;;;;14.98;10.07;;;17.30;35.50;;;;;;4265129;27;20043;-68
2021/03/08 07:38:31;;;;;;;40.90;23.85;;;18.60;35.70;;;;;;4265507;27;20548;-68
2021/03/08 07:40:34;;;;;;;24.90;18.95;;;16.50;32.40;;;;;;4248392;27;20395;-71
2021/03/08 07:42:42;;;;;;;23.45;15.15;;;16.40;35.70;;;;;;4266415;27;20042;-68
2021/03/08 07:44:49;;;;;;;18.15;10.65;;;17.30;33.60;;;;;;4265430;27;20487;-69
2021/03/08 07:46:51;;;;;;;33.47;21.17;;;17.20;35.60;;;;;;4265429;27;20074;-68
2021/03/08 07:48:53;;;;;;;35.90;24.05;;;15.80;34.90;;;;;;4265648;27;20121;-68
2021/03/08 07:50:55;;;;;;;30.98;24.40;;;16.10;34.30;;;;;;4267215;27;20502;-69
2021/03/08 07:52:58;;;;;;;32.50;24.02;;;15.60;35.00;;;;;;4267086;27;20470;-68
2021/03/08 07:55:02;;;;;;;37.10;22.50;;;14.80;35.00;;;;;;4266303;27;20039;-69
2021/03/08 07:57:04;;;;;;;33.90;23.25;;;16.10;36.20;;;;;;4265813;27;20096;-69
2021/03/08 07:59:07;;;;;;;32.45;23.90;;;15.60;35.50;;;;;;4265111;27;20380;-69
2021/03/08 08:01:09;;;;;;;34.58;23.00;;;14.80;35.90;;;;;;4265054;27;20452;-68
2021/03/08 08:03:11;;;;;;;29.50;20.50;;;14.70;36.10;;;;;;4265164;27;20058;-68
2021/03/08 08:05:14;;;;;;;33.25;24.42;;;15.90;36.00;;;;;;4265412;27;20115;-69
2021/03/08 08:07:21;;;;;;;40.05;24.73;;;16.00;35.00;;;;;;4264881;27;20042;-69
2021/03/08 08:09:23;;;;;;;32.38;22.50;;;16.00;34.20;;;;;;4265732;27;20043;-69
2021/03/08 08:11:27;;;;;;;35.85;25.00;;;15.60;34.90;;;;;;4265722;27;20419;-68
2021/03/08 08:13:34;;;;;;;37.15;24.40;;;14.60;36.00;;;;;;4265635;27;20058;-68
2021/03/08 08:15:42;;;;;;;34.25;23.15;;;13.90;36.40;;;;;;4265327;27;20047;-71
2021/03/08 08:17:46;;;;;;;38.63;26.42;;;14.10;37.30;;;;;;4265551;27;20425;-68
2021/03/08 08:19:51;;;;;;;27.00;18.92;;;13.40;37.60;;;;;;4264886;27;20046;-68
2021/03/08 08:21:55;;;;;;;37.72;23.90;;;12.40;38.30;;;;;;4265120;27;20623;-69
2021/03/08 08:24:02;;;;;;;29.55;18.92;;;11.70;40.50;;;;;;4264910;27;20532;-68
2021/03/08 08:26:07;;;;;;;37.70;26.23;;;10.30;44.30;;;;;;4264969;27;20039;-68
2021/03/08 08:28:10;;;;;;;44.45;27.20;;;9.20;45.90;;;;;;4264650;27;20050;-69
2021/03/08 08:30:13;;;;;;;31.63;23.10;;;8.20;48.20;;;;;;4264781;27;20046;-68
2021/03/08 08:32:17;;;;;;;35.75;25.67;;;8.10;52.30;;;;;;4264855;27;20050;-68
2021/03/08 08:34:29;;;;;;;33.75;19.92;;;7.80;50.80;;;;;;4264618;27;20074;-69
2021/03/08 08:36:31;;;;;;;37.00;24.83;;;7.80;51.80;;;;;;4264648;27;20490;-69
2021/03/08 08:38:32;;;;;;;41.58;25.33;;;7.20;51.60;;;;;;4264250;27;20471;-68
2021/03/08 08:40:34;;;;;;;39.63;27.50;;;6.60;54.70;;;;;;4264565;27;20043;-69
2021/03/08 08:42:37;;;;;;;37.40;24.13;;;6.70;54.40;;;;;;4264686;27;20054;-68
2021/03/08 08:44:40;;;;;;;42.72;25.10;;;6.70;55.80;;;;;;4246483;27;20562;-69
2021/03/08 08:46:45;;;;;;;36.28;24.48;;;6.50;55.60;;;;;;4264786;27;20049;-69
2021/03/08 08:49:04;;;;;;;32.78;19.52;;;6.80;55.70;;;;;;4264858;27;20050;-69
2021/03/08 08:51:06;;;;;;;46.65;24.67;;;6.80;55.40;;;;;;4264289;27;20092;-68
2021/03/08 08:53:08;;;;;;;64.75;26.88;;;6.30;55.60;;;;;;4264461;27;20069;-70
2021/03/08 08:55:10;;;;;;;43.88;26.02;;;6.40;57.10;;;;;;4263873;27;20046;-68
2021/03/08 08:57:12;;;;;;;35.88;23.60;;;6.80;55.50;;;;;;4263867;27;20486;-69
2021/03/08 08:59:18;;;;;;;44.58;25.35;;;7.00;56.90;;;;;;4263949;27;20042;-69
2021/03/08 09:01:36;;;;;;;36.15;25.75;;;7.30;53.50;;;;;;4263980;27;20038;-70
2021/03/08 09:03:51;;;;;;;44.13;27.02;;;6.80;55.10;;;;;;4264129;27;20130;-68
2021/03/08 09:05:54;;;;;;;47.35;24.10;;;7.00;54.80;;;;;;4264146;27;20038;-68
2021/03/08 09:08:30;;;;;;;38.58;24.15;;;7.00;54.70;;;;;;4263803;27;20051;-69
2021/03/08 09:10:34;;;;;;;38.80;25.30;;;6.60;55.30;;;;;;4264026;27;20051;-69
2021/03/08 09:12:37;;;;;;;34.28;21.45;;;6.60;55.60;;;;;;4264952;27;20129;-71
2021/03/08 09:14:47;;;;;;;42.65;25.00;;;6.80;55.30;;;;;;4265008;27;20054;-69
2021/03/08 09:16:50;;;;;;;51.78;23.48;;;6.90;55.60;;;;;;4266474;27;20078;-68
2021/03/08 09:19:19;;;;;;;27.90;16.58;;;6.50;55.70;;;;;;4267046;27;20050;-69
2021/03/08 09:21:22;;;;;;;43.90;24.98;;;7.00;57.40;;;;;;4264403;27;20055;-68
2021/03/08 09:23:24;;;;;;;33.13;22.15;;;6.90;55.90;;;;;;4263924;27;20050;-68
2021/03/08 09:25:27;;;;;;;66.55;25.48;;;6.80;56.00;;;;;;4263337;27;20486;-68
2021/03/08 09:27:31;;;;;;;59.63;24.95;;;6.80;55.30;;;;;;4263280;27;20046;-70
2021/03/08 09:29:33;;;;;;;38.55;23.77;;;6.40;55.20;;;;;;4263336;27;20547;-69
2021/03/08 09:31:35;;;;;;;35.97;24.85;;;6.60;54.50;;;;;;4263657;27;20103;-69
2021/03/08 09:33:37;;;;;;;31.60;21.83;;;6.50;55.00;;;;;;4263332;27;20050;-69
2021/03/08 09:35:55;;;;;;;35.45;22.73;;;6.70;56.20;;;;;;4263315;27;20047;-68
2021/03/08 09:38:01;;;;;;;35.40;22.73;;;7.40;55.70;;;;;;4263619;27;20053;-69
2021/03/08 09:40:06;;;;;;;31.23;22.08;;;7.30;55.70;;;;;;4263367;27;20129;-70
2021/03/08 09:42:08;;;;;;;26.23;16.77;;;7.70;57.90;;;;;;4263291;27;20062;-69
2021/03/08 09:44:10;;;;;;;39.22;25.10;;;8.10;52.60;;;;;;4263449;27;20459;-69
2021/03/08 09:46:13;;;;;;;26.42;15.68;;;8.00;51.60;;;;;;4263187;27;20046;-69
2021/03/08 09:48:15;;;;;;;34.40;23.15;;;8.40;54.90;;;;;;4263068;27;20046;-69
2021/03/08 09:50:23;;;;;;;34.38;21.38;;;8.60;50.60;;;;;;4263103;27;20039;-68
2021/03/08 09:52:32;;;;;;;41.63;22.73;;;8.40;50.10;;;;;;4263081;27;20043;-68
2021/03/08 09:54:46;;;;;;;36.80;23.45;;;8.20;49.60;;;;;;4263393;27;20082;-68
2021/03/08 09:56:48;;;;;;;34.70;23.65;;;8.30;50.70;;;;;;4263755;27;20212;-69
2021/03/08 09:58:59;;;;;;;30.85;21.63;;;8.00;50.10;;;;;;4263587;27;20049;-67
2021/03/08 10:01:11;;;;;;;28.35;19.50;;;8.20;48.70;;;;;;4263667;27;20047;-71
2021/03/08 10:03:13;;;;;;;30.17;20.98;;;7.70;49.10;;;;;;4263735;27;20061;-68
2021/03/08 10:05:15;;;;;;;29.20;17.98;;;7.50;49.00;;;;;;4263791;27;20053;-72
2021/03/08 10:07:17;;;;;;;29.40;20.40;;;7.80;52.00;;;;;;4263650;27;20052;-71
2021/03/08 10:09:20;;;;;;;23.35;15.45;;;7.40;50.00;;;;;;4263922;27;20440;-70
2021/03/08 10:11:24;;;;;;;34.03;22.45;;;8.20;50.40;;;;;;4263880;27;20487;-69
2021/03/08 10:13:26;;;;;;;37.00;23.65;;;7.20;48.80;;;;;;4264022;27;20075;-67
2021/03/08 10:15:38;;;;;;;36.83;22.83;;;7.10;50.80;;;;;;4263633;27;20042;-69
2021/03/08 10:17:57;;;;;;;38.28;25.60;;;7.20;52.30;;;;;;4263433;27;20437;-69
2021/03/08 10:19:59;;;;;;;37.78;25.40;;;7.30;50.20;;;;;;4263381;27;20047;-68
2021/03/08 10:22:01;;;;;;;46.30;26.08;;;6.80;51.20;;;;;;4263360;27;20550;-68
2021/03/08 10:24:03;;;;;;;34.70;25.10;;;6.70;51.60;;;;;;4263008;27;20132;-68
2021/03/08 10:26:07;;;;;;;30.88;18.73;;;6.70;52.30;;;;;;4263060;27;20042;-70
2021/03/08 10:28:11;;;;;;;44.75;24.50;;;7.70;54.70;;;;;;4263786;27;20053;-69
2021/03/08 10:30:15;;;;;;;44.15;26.55;;;7.50;49.70;;;;;;4263476;27;20127;-68
2021/03/08 10:32:17;;;;;;;22.58;14.05;;;7.40;50.00;;;;;;4263807;27;20043;-68
2021/03/08 10:34:21;;;;;;;37.53;22.15;;;7.70;54.70;;;;;;4264757;27;20542;-68
2021/03/08 10:36:36;;;;;;;39.10;26.10;;;7.70;50.50;;;;;;4265309;27;20459;-68
2021/03/08 10:38:38;;;;;;;33.33;22.83;;;7.70;49.60;;;;;;4269109;27;20095;-69
2021/03/08 10:40:41;;;;;;;35.05;21.85;;;8.40;48.70;;;;;;4268951;27;20091;-68
2021/03/08 10:42:43;;;;;;;44.78;22.50;;;8.10;49.20;;;;;;4268202;27;20050;-73